Time,TemperatureF,DewpointF,PressureIn,WindDirection,WindDirectionDegrees,WindSpeedMPH,WindSpeedGustMPH,Humidity,HourlyPrecipIn,Conditions,Clouds,dailyrainin,SolarRadiationWatts/m^2,SoftwareType,DateUTC
2013-03-11 00:02:00,42.0,37.0,-100.00,SSW,198,5.0,8.0,82,0.00,,,0.00,1.000000,,2013-03-11 07:02:00,
2013-03-11 00:32:00,42.0,37.0,-100.00,SSW,198,5.0,8.0,82,0.00,,,0.00,1.000000,,2013-03-11 07:32:00,
2013-03-11 00:42:00,42.0,37.0,-100.00,SSW,198,5.0,8.0,82,0.00,,,0.00,1.000000,,2013-03-11 07:42:00,
2013-03-11 00:52:00,42.0,37.0,-100.00,SSW,198,5.0,8.0,82,0.00,,,0.00,1.000000,,2013-03-11 07:52:00,
2013-03-11 01:33:00,43.0,37.0,-100.00,SSW,199,6.0,9.0,80,0.00,,,0.00,1.000000,,2013-03-11 08:33:00,
2013-03-11 01:42:00,43.0,37.0,-100.00,SSW,199,6.0,9.0,80,0.00,,,0.00,1.000000,,2013-03-11 08:42:00,
2013-03-11 01:52:00,43.0,37.0,-100.00,SSW,199,6.0,9.0,80,0.00,,,0.00,1.000000,,2013-03-11 08:52:00,
2013-03-11 02:01:00,43.0,37.0,-100.00,SSW,199,6.0,9.0,80,0.00,,,0.00,1.000000,,2013-03-11 09:01:00,
2013-03-11 02:02:00,43.0,37.0,-100.00,SSW,213,6.0,9.0,80,0.00,,,0.00,1.000000,,2013-03-11 09:02:00,
2013-03-11 02:23:00,43.0,37.0,-100.00,SSW,213,6.0,9.0,80,0.00,,,0.00,1.000000,,2013-03-11 09:23:00,
2013-03-11 02:32:00,43.0,37.0,-100.00,SSW,213,6.0,9.0,80,0.00,,,0.00,1.000000,,2013-03-11 09:32:00,
2013-03-11 02:42:00,43.0,37.0,-100.00,SSW,213,6.0,9.0,80,0.00,,,0.00,1.000000,,2013-03-11 09:42:00,
2013-03-11 02:52:00,43.0,37.0,-100.00,SSW,213,6.0,9.0,80,0.00,,,0.00,1.000000,,2013-03-11 09:52:00,
2013-03-11 03:02:00,43.0,38.0,-100.00,SW,221,7.0,10.0,83,0.00,,,0.00,1.000000,,2013-03-11 10:02:00,
2013-03-11 03:32:00,43.0,38.0,-100.00,SW,221,7.0,10.0,83,0.00,,,0.00,1.000000,,2013-03-11 10:32:00,
2013-03-11 03:42:00,43.0,38.0,-100.00,SW,221,7.0,10.0,83,0.00,,,0.00,1.000000,,2013-03-11 10:42:00,
2013-03-11 03:52:00,43.0,38.0,-100.00,SW,221,7.0,10.0,83,0.00,,,0.00,1.000000,,2013-03-11 10:52:00,
2013-03-11 04:02:00,42.0,38.0,-100.00,SSW,212,5.0,10.0,85,0.00,,,-99.99,1.000000,,2013-03-11 11:02:00,
2013-03-11 04:33:00,42.0,38.0,-100.00,SSW,212,5.0,10.0,85,0.00,,,-99.99,1.000000,,2013-03-11 11:33:00,
2013-03-11 04:42:00,42.0,38.0,-100.00,SSW,212,5.0,10.0,85,0.00,,,-99.99,1.000000,,2013-03-11 11:42:00,
2013-03-11 04:53:00,42.0,38.0,-100.00,SSW,212,5.0,10.0,85,0.00,,,-99.99,1.000000,,2013-03-11 11:53:00,
2013-03-11 05:02:00,43.0,38.0,-100.00,WSW,247,4.0,11.0,81,0.00,,,-99.99,1.000000,,2013-03-11 12:02:00,
2013-03-11 05:33:00,43.0,38.0,-100.00,WSW,247,4.0,11.0,81,0.00,,,-99.99,1.000000,,2013-03-11 12:33:00,
2013-03-11 05:43:00,43.0,38.0,-100.00,WSW,247,4.0,11.0,81,0.00,,,-99.99,1.000000,,2013-03-11 12:43:00,
2013-03-11 05:53:00,43.0,38.0,-100.00,WSW,247,4.0,11.0,81,0.00,,,-99.99,1.000000,,2013-03-11 12:53:00,
2013-03-11 06:22:00,43.0,38.0,-100.00,WSW,237,4.0,7.0,81,0.00,,,-99.99,1.000000,,2013-03-11 13:22:00,
2013-03-11 06:33:00,43.0,38.0,-100.00,WSW,237,4.0,7.0,81,0.00,,,-99.99,1.000000,,2013-03-11 13:33:00,
2013-03-11 06:43:00,43.0,38.0,-100.00,WSW,237,4.0,7.0,81,0.00,,,-99.99,1.000000,,2013-03-11 13:43:00,
2013-03-11 06:52:00,43.0,38.0,-100.00,WSW,237,4.0,7.0,81,0.00,,,-99.99,1.000000,,2013-03-11 13:52:00,
2013-03-11 07:01:00,43.0,38.0,-100.00,WSW,237,4.0,7.0,81,0.00,,,-99.99,1.000000,,2013-03-11 14:01:00,
2013-03-11 07:02:00,42.0,38.0,-100.00,SW,216,4.0,6.0,84,0.00,,,0.00,1.000000,,2013-03-11 14:02:00,
2013-03-11 07:22:00,42.0,38.0,-100.00,SW,216,4.0,6.0,84,0.00,,,0.00,1.000000,,2013-03-11 14:22:00,
2013-03-11 07:33:00,42.0,38.0,-100.00,SW,216,4.0,6.0,84,0.00,,,0.00,1.000000,,2013-03-11 14:33:00,
2013-03-11 07:42:00,42.0,38.0,-100.00,SW,216,4.0,6.0,84,0.00,,,0.00,1.000000,,2013-03-11 14:42:00,
2013-03-11 07:53:00,42.0,38.0,-100.00,SW,216,4.0,6.0,84,0.00,,,0.00,1.000000,,2013-03-11 14:53:00,
2013-03-11 08:02:00,42.0,38.0,-100.00,NNE,13,3.0,7.0,84,0.00,,,0.00,14.000000,,2013-03-11 15:02:00,
2013-03-11 08:23:00,42.0,38.0,-100.00,NNE,13,3.0,7.0,84,0.00,,,0.00,14.000000,,2013-03-11 15:23:00,
2013-03-11 08:32:00,42.0,38.0,-100.00,NNE,13,3.0,7.0,84,0.00,,,0.00,14.000000,,2013-03-11 15:32:00,
2013-03-11 08:42:00,42.0,38.0,-100.00,NNE,13,3.0,7.0,84,0.00,,,0.00,14.000000,,2013-03-11 15:42:00,
2013-03-11 08:53:00,42.0,38.0,-100.00,NNE,13,3.0,7.0,84,0.00,,,0.00,14.000000,,2013-03-11 15:53:00,
2013-03-11 09:02:00,44.0,39.0,-100.00,WSW,245,3.0,5.0,83,0.00,,,0.00,82.000000,,2013-03-11 16:02:00,
2013-03-11 09:32:00,44.0,39.0,-100.00,WSW,245,3.0,5.0,83,0.00,,,0.00,82.000000,,2013-03-11 16:32:00,
2013-03-11 09:43:00,44.0,39.0,-100.00,WSW,245,3.0,5.0,83,0.00,,,0.00,82.000000,,2013-03-11 16:43:00,
2013-03-11 09:52:00,44.0,39.0,-100.00,WSW,245,3.0,5.0,83,0.00,,,0.00,82.000000,,2013-03-11 16:52:00,
2013-03-11 10:38:00,48.0,40.0,-100.00,WNW,285,4.0,7.0,74,0.00,,,-99.99,224.000000,,2013-03-11 17:38:00,
2013-03-11 10:53:00,48.0,40.0,-100.00,WNW,285,4.0,7.0,74,0.00,,,-99.99,224.000000,,2013-03-11 17:53:00,
2013-03-11 11:01:00,48.0,40.0,-100.00,WNW,285,4.0,7.0,74,0.00,,,-99.99,224.000000,,2013-03-11 18:01:00,
2013-03-11 11:02:00,50.0,40.0,-100.00,West,275,3.0,7.0,68,0.00,,,-99.99,360.000000,,2013-03-11 18:02:00,
2013-03-11 11:33:00,50.0,40.0,-100.00,West,275,3.0,7.0,68,0.00,,,-99.99,360.000000,,2013-03-11 18:33:00,
2013-03-11 11:42:00,50.0,40.0,-100.00,West,275,3.0,7.0,68,0.00,,,-99.99,360.000000,,2013-03-11 18:42:00,
2013-03-11 11:53:00,50.0,40.0,-100.00,West,275,3.0,7.0,68,0.00,,,-99.99,360.000000,,2013-03-11 18:53:00,
2013-03-11 12:02:00,50.0,39.0,-100.00,WSW,250,6.0,11.0,65,0.00,,,0.00,333.000000,,2013-03-11 19:02:00,
2013-03-11 12:33:00,50.0,39.0,-100.00,WSW,250,6.0,11.0,65,0.00,,,0.00,333.000000,,2013-03-11 19:33:00,
2013-03-11 12:43:00,50.0,39.0,-100.00,WSW,250,6.0,11.0,65,0.00,,,0.00,333.000000,,2013-03-11 19:43:00,
2013-03-11 12:52:00,50.0,39.0,-100.00,WSW,250,6.0,11.0,65,0.00,,,0.00,333.000000,,2013-03-11 19:52:00,
2013-03-11 13:02:00,50.0,39.0,-100.00,WSW,255,6.0,10.0,65,0.00,,,0.00,284.000000,,2013-03-11 20:02:00,
2013-03-11 13:33:00,50.0,39.0,-100.00,WSW,255,6.0,10.0,65,0.00,,,0.00,284.000000,,2013-03-11 20:33:00,
2013-03-11 13:44:00,50.0,39.0,-100.00,WSW,255,6.0,10.0,65,0.00,,,0.00,284.000000,,2013-03-11 20:44:00,
2013-03-11 13:53:00,50.0,39.0,-100.00,WSW,255,6.0,10.0,65,0.00,,,0.00,284.000000,,2013-03-11 20:53:00,
2013-03-11 14:02:00,53.0,40.0,-100.00,WNW,287,7.0,15.0,61,0.00,,,-99.99,436.000000,,2013-03-11 21:02:00,
2013-03-11 14:33:00,53.0,40.0,-100.00,WNW,287,7.0,15.0,61,0.00,,,-99.99,436.000000,,2013-03-11 21:33:00,
2013-03-11 14:44:00,53.0,40.0,-100.00,WNW,287,7.0,15.0,61,0.00,,,-99.99,436.000000,,2013-03-11 21:44:00,
2013-03-11 14:53:00,53.0,40.0,-100.00,WNW,287,7.0,15.0,61,0.00,,,-99.99,436.000000,,2013-03-11 21:53:00,
2013-03-11 15:02:00,53.0,40.0,-100.00,NW,320,6.0,11.0,62,0.00,,,-99.99,311.000000,,2013-03-11 22:02:00,
2013-03-11 15:32:00,53.0,40.0,-100.00,NW,320,6.0,11.0,62,0.00,,,-99.99,311.000000,,2013-03-11 22:32:00,
2013-03-11 15:43:00,53.0,40.0,-100.00,NW,320,6.0,11.0,62,0.00,,,-99.99,311.000000,,2013-03-11 22:43:00,
2013-03-11 15:53:00,53.0,40.0,-100.00,NW,320,6.0,11.0,62,0.00,,,-99.99,311.000000,,2013-03-11 22:53:00,
2013-03-11 16:02:00,53.0,40.0,-100.00,WNW,286,5.0,16.0,62,0.00,,,0.00,229.000000,,2013-03-11 23:02:00,
2013-03-11 16:33:00,53.0,40.0,-100.00,WNW,286,5.0,16.0,62,0.00,,,0.00,229.000000,,2013-03-11 23:33:00,
2013-03-11 16:43:00,53.0,40.0,-100.00,WNW,286,5.0,16.0,62,0.00,,,0.00,229.000000,,2013-03-11 23:43:00,
2013-03-11 16:53:00,53.0,40.0,-100.00,WNW,286,5.0,16.0,62,0.00,,,0.00,229.000000,,2013-03-11 23:53:00,
2013-03-11 17:02:00,52.0,39.0,-100.00,West,267,8.0,12.0,61,0.00,,,0.00,170.000000,,2013-03-12 00:02:00,
2013-03-11 17:33:00,52.0,39.0,-100.00,West,267,8.0,12.0,61,0.00,,,0.00,170.000000,,2013-03-12 00:33:00,
2013-03-11 17:43:00,52.0,39.0,-100.00,West,267,8.0,12.0,61,0.00,,,0.00,170.000000,,2013-03-12 00:43:00,
2013-03-11 17:53:00,52.0,39.0,-100.00,West,267,8.0,12.0,61,0.00,,,0.00,170.000000,,2013-03-12 00:53:00,
2013-03-11 18:02:00,51.0,39.0,-100.00,West,277,5.0,10.0,64,0.00,,,0.00,108.000000,,2013-03-12 01:02:00,
2013-03-11 18:33:00,51.0,39.0,-100.00,West,277,5.0,10.0,64,0.00,,,0.00,108.000000,,2013-03-12 01:33:00,
2013-03-11 18:42:00,51.0,39.0,-100.00,West,277,5.0,10.0,64,0.00,,,0.00,108.000000,,2013-03-12 01:42:00,
2013-03-11 18:52:00,51.0,39.0,-100.00,West,277,5.0,10.0,64,0.00,,,0.00,108.000000,,2013-03-12 01:52:00,
2013-03-11 19:32:00,49.0,40.0,-100.00,SW,231,5.0,8.0,70,0.00,,,0.00,42.000000,,2013-03-12 02:32:00,
2013-03-11 19:43:00,49.0,40.0,-100.00,SW,231,5.0,8.0,70,0.00,,,0.00,42.000000,,2013-03-12 02:43:00,
2013-03-11 19:52:00,49.0,40.0,-100.00,SW,231,5.0,8.0,70,0.00,,,0.00,42.000000,,2013-03-12 02:52:00,
2013-03-11 20:01:00,49.0,40.0,-100.00,SW,231,5.0,8.0,70,0.00,,,0.00,42.000000,,2013-03-12 03:01:00,
2013-03-11 20:02:00,45.0,38.0,-100.00,SSW,201,4.0,7.0,76,0.00,,,0.00,1.000000,,2013-03-12 03:02:00,
2013-03-11 20:32:00,45.0,38.0,-100.00,SSW,201,4.0,7.0,76,0.00,,,0.00,1.000000,,2013-03-12 03:32:00,
2013-03-11 20:42:00,45.0,38.0,-100.00,SSW,201,4.0,7.0,76,0.00,,,0.00,1.000000,,2013-03-12 03:42:00,
2013-03-11 20:52:00,45.0,38.0,-100.00,SSW,201,4.0,7.0,76,0.00,,,0.00,1.000000,,2013-03-12 03:52:00,
2013-03-11 21:02:00,43.0,38.0,-100.00,South,183,5.0,6.0,82,0.00,,,0.00,1.000000,,2013-03-12 04:02:00,
2013-03-11 21:32:00,43.0,38.0,-100.00,South,183,5.0,6.0,82,0.00,,,0.00,1.000000,,2013-03-12 04:32:00,
2013-03-11 21:43:00,43.0,38.0,-100.00,South,183,5.0,6.0,82,0.00,,,0.00,1.000000,,2013-03-12 04:43:00,
2013-03-11 21:52:00,43.0,38.0,-100.00,South,183,5.0,6.0,82,0.00,,,0.00,1.000000,,2013-03-12 04:52:00,
2013-03-11 22:32:00,43.0,38.0,-100.00,SSW,195,5.0,7.0,81,0.00,,,0.00,1.000000,,2013-03-12 05:32:00,
2013-03-11 22:42:00,43.0,38.0,-100.00,SSW,195,5.0,7.0,81,0.00,,,0.00,1.000000,,2013-03-12 05:42:00,
2013-03-11 22:52:00,43.0,38.0,-100.00,SSW,195,5.0,7.0,81,0.00,,,0.00,1.000000,,2013-03-12 05:52:00,
2013-03-11 23:01:00,43.0,38.0,-100.00,SSW,195,5.0,7.0,81,0.00,,,0.00,1.000000,,2013-03-12 06:01:00,
2013-03-11 23:02:00,43.0,38.0,-100.00,SSW,206,4.0,6.0,81,0.00,,,0.00,1.000000,,2013-03-12 06:02:00,
2013-03-11 23:32:00,43.0,38.0,-100.00,SSW,206,4.0,6.0,81,0.00,,,0.00,1.000000,,2013-03-12 06:32:00,
2013-03-11 23:42:00,43.0,38.0,-100.00,SSW,206,4.0,6.0,81,0.00,,,0.00,1.000000,,2013-03-12 06:42:00,
2013-03-11 23:52:00,43.0,38.0,-100.00,SSW,206,4.0,6.0,81,0.00,,,0.00,1.000000,,2013-03-12 06:52:00,